createdAt,value
2022-12-16T00:00:30.556Z,-6.28
2022-12-16T00:02:32.739Z,-6.24
2022-12-16T00:04:34.786Z,-6.26
2022-12-16T00:06:36.831Z,-6.27
2022-12-16T00:08:40.007Z,-6.19
2022-12-16T00:11:02.171Z,-6.21
2022-12-16T00:13:08.924Z,-6.24
2022-12-16T00:15:12.543Z,-6.26
2022-12-16T00:17:14.511Z,-6.24
2022-12-16T00:19:16.426Z,-6.23
2022-12-16T00:21:21.417Z,-6.26
2022-12-16T00:23:23.589Z,-6.31
2022-12-16T00:25:26.488Z,-6.30
2022-12-16T00:27:31.634Z,-6.26
2022-12-16T00:29:33.572Z,-6.24
2022-12-16T00:31:35.591Z,-6.28
2022-12-16T00:33:37.650Z,-6.26
2022-12-16T00:35:44.407Z,-6.28
2022-12-16T00:37:48.035Z,-6.26
2022-12-16T00:39:49.939Z,-6.30
2022-12-16T00:41:52.138Z,-6.29
2022-12-16T00:43:55.075Z,-6.30
2022-12-16T00:45:57.073Z,-6.21
2022-12-16T00:47:59.291Z,-6.18
2022-12-16T00:50:01.376Z,-6.26
2022-12-16T00:52:03.278Z,-6.20
2022-12-16T00:54:05.254Z,-6.25
2022-12-16T00:56:10.656Z,-6.26
2022-12-16T00:58:17.962Z,-6.30
2022-12-16T01:00:20.506Z,-6.28
2022-12-16T01:02:22.473Z,-6.22
2022-12-16T01:04:26.900Z,-6.26
2022-12-16T01:06:28.925Z,-6.21
2022-12-16T01:08:30.829Z,-6.20
2022-12-16T01:10:32.745Z,-6.21
2022-12-16T01:12:35.663Z,-6.11
2022-12-16T01:14:37.495Z,-6.12
2022-12-16T01:16:39.435Z,-6.13
2022-12-16T01:18:41.351Z,-6.07
2022-12-16T01:20:43.539Z,-6.04
2022-12-16T01:22:45.590Z,-6.03
2022-12-16T01:24:47.901Z,-6.00
2022-12-16T01:26:49.800Z,-5.92
2022-12-16T01:28:52.451Z,-5.89
2022-12-16T01:31:01.950Z,-5.84
2022-12-16T01:33:04.057Z,-5.81
2022-12-16T01:35:17.980Z,-5.83
2022-12-16T01:37:28.456Z,-5.79
2022-12-16T01:39:30.558Z,-5.78
2022-12-16T01:41:33.366Z,-5.71
2022-12-16T01:43:37.785Z,-5.72
2022-12-16T01:45:39.885Z,-5.70
2022-12-16T01:47:42.143Z,-5.75
2022-12-16T01:50:06.346Z,-5.76
2022-12-16T01:52:13.412Z,-5.73
2022-12-16T01:54:26.448Z,-5.75
2022-12-16T01:56:31.987Z,-5.72
2022-12-16T01:58:38.053Z,-5.67
2022-12-16T02:00:41.316Z,-5.65
2022-12-16T02:02:46.303Z,-5.63
2022-12-16T02:05:07.146Z,-5.60
2022-12-16T02:07:08.985Z,-5.51
2022-12-16T02:09:13.246Z,-5.48
2022-12-16T02:11:17.830Z,-5.39
2022-12-16T02:13:23.738Z,-5.42
2022-12-16T02:15:32.022Z,-5.47
2022-12-16T02:17:41.396Z,-5.40
2022-12-16T02:20:08.244Z,-5.43
2022-12-16T02:22:52.850Z,-5.40
2022-12-16T02:25:16.435Z,-5.50
2022-12-16T02:27:40.403Z,-5.51
2022-12-16T02:29:54.409Z,-5.50
2022-12-16T02:32:21.472Z,-5.47
2022-12-16T02:34:55.137Z,-5.49
2022-12-16T02:37:13.623Z,-5.44
2022-12-16T02:39:22.552Z,-5.39
2022-12-16T02:41:39.760Z,-5.42
2022-12-16T02:44:02.529Z,-5.46
2022-12-16T02:46:07.424Z,-5.46
2022-12-16T02:48:10.378Z,-5.48
2022-12-16T02:50:21.699Z,-5.51
2022-12-16T02:52:29.849Z,-5.50
2022-12-16T02:54:31.894Z,-5.44
2022-12-16T02:56:50.026Z,-5.42
2022-12-16T02:58:56.214Z,-5.39
2022-12-16T03:01:12.563Z,-5.40
2022-12-16T03:03:27.889Z,-5.40
2022-12-16T03:05:41.135Z,-5.37
2022-12-16T03:07:45.284Z,-5.42
2022-12-16T03:09:48.538Z,-5.45
2022-12-16T03:11:53.323Z,-5.41
2022-12-16T03:13:58.260Z,-5.48
2022-12-16T03:16:01.685Z,-5.42
2022-12-16T03:18:07.891Z,-5.37
2022-12-16T03:20:25.152Z,-5.45
2022-12-16T03:22:33.102Z,-5.43
2022-12-16T03:24:36.334Z,-5.42
2022-12-16T03:26:45.002Z,-5.37
2022-12-16T03:28:58.617Z,-5.32
2022-12-16T03:31:41.781Z,-5.41
2022-12-16T03:34:10.943Z,-5.40
2022-12-16T03:36:22.426Z,-5.40
2022-12-16T03:38:26.834Z,-5.42
2022-12-16T03:40:29.342Z,-5.43
2022-12-16T03:42:31.533Z,-5.46
2022-12-16T03:44:36.106Z,-5.40
2022-12-16T03:46:38.186Z,-5.41
2022-12-16T03:48:47.049Z,-5.49
2022-12-16T03:50:49.009Z,-5.45
2022-12-16T03:52:50.949Z,-5.47
2022-12-16T03:54:53.867Z,-5.46
2022-12-16T03:56:55.770Z,-5.37
2022-12-16T03:58:57.630Z,-5.40
2022-12-16T04:01:00.591Z,-5.41
2022-12-16T04:03:02.706Z,-5.43
2022-12-16T04:05:04.995Z,-5.32
2022-12-16T04:07:22.114Z,-5.43
2022-12-16T04:09:24.048Z,-5.45
2022-12-16T04:11:44.562Z,-5.43
2022-12-16T04:14:04.854Z,-5.37
2022-12-16T04:16:33.008Z,-5.33
2022-12-16T04:18:54.157Z,-5.35
2022-12-16T04:21:15.691Z,-5.38
2022-12-16T04:23:37.246Z,-5.41
2022-12-16T04:25:39.138Z,-5.37
2022-12-16T04:27:47.148Z,-5.38
2022-12-16T04:30:15.164Z,-5.36
2022-12-16T04:32:17.326Z,-5.34
2022-12-16T04:34:26.378Z,-5.32
2022-12-16T04:36:46.693Z,-5.36
2022-12-16T04:39:07.127Z,-5.35
2022-12-16T04:41:27.718Z,-5.28
2022-12-16T04:43:52.684Z,-5.35
2022-12-16T04:46:13.273Z,-5.27
2022-12-16T04:48:33.859Z,-5.26
2022-12-16T04:50:54.069Z,-5.17
2022-12-16T04:53:14.753Z,-5.21
2022-12-16T04:55:35.481Z,-5.24
2022-12-16T04:57:56.117Z,-5.21
2022-12-16T05:00:16.820Z,-5.21
2022-12-16T05:02:38.303Z,-5.24
2022-12-16T05:04:58.570Z,-5.20
2022-12-16T05:07:19.276Z,-5.26
2022-12-16T05:09:39.963Z,-5.27
2022-12-16T05:12:00.526Z,-5.27
2022-12-16T05:14:21.129Z,-5.18
2022-12-16T05:16:41.425Z,-5.25
2022-12-16T05:19:01.971Z,-5.26
2022-12-16T05:21:22.563Z,-5.20
2022-12-16T05:23:43.104Z,-5.22
2022-12-16T05:26:03.694Z,-5.26
2022-12-16T05:28:24.738Z,-5.25
2022-12-16T05:30:45.276Z,-5.26
2022-12-16T05:33:07.810Z,-5.15
2022-12-16T05:35:28.935Z,-5.22
2022-12-16T05:37:49.418Z,-5.22
2022-12-16T05:40:09.992Z,-5.22
2022-12-16T05:42:30.263Z,-5.16
2022-12-16T05:44:50.648Z,-5.06
2022-12-16T05:47:11.368Z,-5.09
2022-12-16T05:49:31.642Z,-5.07
2022-12-16T05:51:52.265Z,-5.05
2022-12-16T05:54:12.592Z,-5.06
2022-12-16T05:56:32.875Z,-5.21
2022-12-16T05:58:53.423Z,-5.30
2022-12-16T06:01:14.046Z,-5.30
2022-12-16T06:03:34.969Z,-5.22
2022-12-16T06:05:55.482Z,-5.33
2022-12-16T06:08:15.766Z,-5.31
2022-12-16T06:10:36.222Z,-5.23
2022-12-16T06:12:56.819Z,-5.25
2022-12-16T06:15:17.380Z,-5.25
2022-12-16T06:17:40.798Z,-5.27
2022-12-16T06:20:01.114Z,-5.23
2022-12-16T06:22:21.425Z,-5.22
2022-12-16T06:24:42.091Z,-5.23
2022-12-16T06:27:02.657Z,-5.26
2022-12-16T06:29:23.298Z,-5.17
2022-12-16T06:31:43.659Z,-5.06
2022-12-16T06:34:04.203Z,-5.11
2022-12-16T06:36:25.240Z,-5.12
2022-12-16T06:38:45.680Z,-5.08
2022-12-16T06:41:06.371Z,-5.05
2022-12-16T06:43:26.638Z,-5.07
2022-12-16T06:45:47.003Z,-5.08
2022-12-16T06:48:07.552Z,-5.06
2022-12-16T06:50:28.053Z,-5.11
2022-12-16T06:52:48.476Z,-5.06
2022-12-16T06:55:08.759Z,-5.05
2022-12-16T06:57:29.092Z,-5.11
2022-12-16T06:59:49.700Z,-5.01
2022-12-16T07:02:10.612Z,-5.03
2022-12-16T07:04:31.381Z,-5.09
2022-12-16T07:06:51.838Z,-5.00
2022-12-16T07:09:12.147Z,-5.00
2022-12-16T07:11:32.430Z,-5.04
2022-12-16T07:13:53.086Z,-5.06
2022-12-16T07:16:14.833Z,-5.06
2022-12-16T07:18:35.254Z,-5.10
2022-12-16T07:20:55.527Z,-5.10
2022-12-16T07:23:19.557Z,-5.11
2022-12-16T07:25:40.398Z,-5.05
2022-12-16T07:28:05.175Z,-5.07
2022-12-16T07:30:29.891Z,-5.10
2022-12-16T07:32:51.422Z,-5.11
2022-12-16T07:35:12.086Z,-4.94
2022-12-16T07:37:32.479Z,-4.94
2022-12-16T07:39:55.171Z,-4.85
2022-12-16T07:42:16.052Z,-4.82
2022-12-16T07:44:37.734Z,-4.82
2022-12-16T07:46:58.373Z,-4.85
2022-12-16T07:49:19.603Z,-4.85
2022-12-16T07:51:56.775Z,-4.81
2022-12-16T07:54:17.207Z,-4.80
2022-12-16T07:56:37.887Z,-4.75
2022-12-16T07:58:58.502Z,-4.76
2022-12-16T08:01:19.611Z,-4.75
2022-12-16T08:03:40.089Z,-4.83
2022-12-16T08:06:00.380Z,-4.82
2022-12-16T08:08:20.595Z,-4.79
2022-12-16T08:10:41.202Z,-4.82
2022-12-16T08:13:01.906Z,-4.82
2022-12-16T08:15:22.367Z,-4.83
2022-12-16T08:17:42.810Z,-4.84
2022-12-16T08:20:03.062Z,-4.84
2022-12-16T08:22:23.401Z,-4.83
2022-12-16T08:24:49.689Z,-4.84
2022-12-16T08:27:13.762Z,-4.80
2022-12-16T08:29:44.114Z,-4.78
2022-12-16T08:32:05.265Z,-4.79
2022-12-16T08:34:25.853Z,-4.88
2022-12-16T08:37:03.019Z,-4.83
2022-12-16T08:39:23.832Z,-4.81
2022-12-16T08:41:44.501Z,-4.78
2022-12-16T08:44:05.074Z,-4.82
2022-12-16T08:46:25.739Z,-4.80
2022-12-16T08:48:46.712Z,-4.81
2022-12-16T08:51:07.271Z,-4.79
2022-12-16T08:53:28.117Z,-4.77
2022-12-16T08:55:48.856Z,-4.79
2022-12-16T08:58:15.270Z,-4.73
2022-12-16T09:00:35.957Z,-4.74
2022-12-16T09:02:57.915Z,-4.64
2022-12-16T09:05:18.336Z,-4.67
2022-12-16T09:07:39.163Z,-4.64
2022-12-16T09:09:59.490Z,-4.58
2022-12-16T09:12:20.091Z,-4.60
2022-12-16T09:14:41.795Z,-4.62
2022-12-16T09:17:02.357Z,-4.59
2022-12-16T09:19:23.076Z,-4.58
2022-12-16T09:21:48.464Z,-4.63
2022-12-16T09:24:08.721Z,-4.62
2022-12-16T09:26:29.340Z,-4.55
2022-12-16T09:28:50.950Z,-4.58
2022-12-16T09:31:11.509Z,-4.53
2022-12-16T09:33:32.719Z,-4.50
2022-12-16T09:35:54.379Z,-4.49
2022-12-16T09:38:16.080Z,-4.47
2022-12-16T09:40:37.439Z,-4.48
2022-12-16T09:43:15.406Z,-4.47
2022-12-16T09:45:51.286Z,-4.45
2022-12-16T09:48:39.708Z,-4.42
2022-12-16T09:51:02.706Z,-4.36
2022-12-16T09:53:26.357Z,-4.38
2022-12-16T09:55:59.312Z,-4.39
2022-12-16T09:58:20.755Z,-4.35
2022-12-16T10:00:46.366Z,-4.37
2022-12-16T10:03:10.199Z,-4.30
2022-12-16T10:05:33.553Z,-4.32
2022-12-16T10:07:59.411Z,-4.28
2022-12-16T10:10:36.239Z,-4.18
2022-12-16T10:13:05.167Z,-4.22
2022-12-16T10:15:48.780Z,-4.17
2022-12-16T10:18:09.323Z,-4.14
2022-12-16T10:20:47.973Z,-4.14
2022-12-16T10:23:23.431Z,-4.12
2022-12-16T10:26:08.889Z,-4.12
2022-12-16T10:28:43.488Z,-4.10
2022-12-16T10:31:03.845Z,-4.11
2022-12-16T10:33:29.365Z,-4.10
2022-12-16T10:35:55.592Z,-4.04
2022-12-16T10:38:16.176Z,-4.01
2022-12-16T10:40:41.695Z,-4.00
2022-12-16T10:43:15.779Z,-3.97
2022-12-16T10:45:48.068Z,-3.98
2022-12-16T10:48:09.255Z,-3.96
2022-12-16T10:50:33.698Z,-3.99
2022-12-16T10:52:54.284Z,-3.91
2022-12-16T10:55:52.383Z,-3.94
2022-12-16T10:58:41.844Z,-3.86
2022-12-16T11:01:06.657Z,-3.92
2022-12-16T11:03:42.434Z,-3.91
2022-12-16T11:06:03.119Z,-3.93
2022-12-16T11:08:24.124Z,-3.87
2022-12-16T11:10:44.598Z,-3.87
2022-12-16T11:13:17.297Z,-3.83
2022-12-16T11:15:44.516Z,-3.81
2022-12-16T11:18:24.119Z,-3.88
2022-12-16T11:20:44.976Z,-3.78
2022-12-16T11:23:05.477Z,-3.77
2022-12-16T11:25:31.582Z,-3.74
2022-12-16T11:27:52.338Z,-3.66
2022-12-16T11:30:16.309Z,-3.65
2022-12-16T11:32:41.790Z,-3.71
2022-12-16T11:35:06.527Z,-3.75
2022-12-16T11:37:30.044Z,-3.74
2022-12-16T11:39:53.939Z,-3.72
2022-12-16T11:42:15.303Z,-3.64
2022-12-16T11:44:40.303Z,-3.66
2022-12-16T11:47:02.071Z,-3.64
2022-12-16T11:49:31.383Z,-3.67
2022-12-16T11:52:08.254Z,-3.70
2022-12-16T11:54:49.079Z,-3.66
2022-12-16T11:57:09.749Z,-3.62
2022-12-16T11:59:51.565Z,-3.59
2022-12-16T12:02:20.074Z,-3.51
2022-12-16T12:04:40.731Z,-3.50
2022-12-16T12:07:26.203Z,-3.48
2022-12-16T12:09:47.330Z,-3.57
2022-12-16T12:12:22.064Z,-3.52
2022-12-16T12:14:42.684Z,-3.49
2022-12-16T12:17:23.684Z,-3.44
2022-12-16T12:20:23.199Z,-3.50
2022-12-16T12:22:58.008Z,-3.49
2022-12-16T12:25:39.823Z,-3.43
2022-12-16T12:28:14.043Z,-3.43
2022-12-16T12:30:39.292Z,-3.36
2022-12-16T12:33:11.875Z,-3.30
2022-12-16T12:35:41.268Z,-3.38
2022-12-16T12:38:43.898Z,-3.36
2022-12-16T12:41:13.372Z,-3.39
2022-12-16T12:43:55.225Z,-3.42
2022-12-16T12:46:37.513Z,-3.36
2022-12-16T12:49:23.614Z,-3.37
2022-12-16T12:51:59.276Z,-3.43
2022-12-16T12:54:40.744Z,-3.58
2022-12-16T12:57:05.648Z,-3.61
2022-12-16T12:59:37.724Z,-3.69
2022-12-16T13:02:02.005Z,-3.68
2022-12-16T13:04:31.526Z,-3.69
2022-12-16T13:06:55.993Z,-3.74
2022-12-16T13:09:17.974Z,-3.68
2022-12-16T13:11:39.665Z,-3.73
2022-12-16T13:14:02.066Z,-3.70
2022-12-16T13:16:28.165Z,-3.72
2022-12-16T13:18:52.647Z,-3.72
2022-12-16T13:21:17.051Z,-3.71
2022-12-16T13:23:57.393Z,-3.72
2022-12-16T13:26:24.430Z,-3.82
2022-12-16T13:28:57.896Z,-3.83
2022-12-16T13:31:25.692Z,-3.86
2022-12-16T13:33:49.331Z,-3.89
2022-12-16T13:36:15.553Z,-3.92
2022-12-16T13:38:40.580Z,-3.91
2022-12-16T13:41:23.663Z,-3.85
2022-12-16T13:44:08.131Z,-3.96
2022-12-16T13:46:34.116Z,-4.02
2022-12-16T13:48:59.692Z,-4.05
2022-12-16T13:51:20.260Z,-4.06
2022-12-16T13:53:47.174Z,-4.04
2022-12-16T13:56:10.628Z,-4.00
2022-12-16T13:58:57.093Z,-4.07
2022-12-16T14:01:25.516Z,-4.06
2022-12-16T14:04:07.734Z,-4.07
2022-12-16T14:06:50.351Z,-4.04
2022-12-16T14:09:10.742Z,-4.09
2022-12-16T14:12:01.428Z,-4.08
2022-12-16T14:14:28.086Z,-4.04
2022-12-16T14:17:20.131Z,-4.07
2022-12-16T14:20:02.197Z,-4.10
2022-12-16T14:22:34.980Z,-4.08
2022-12-16T14:24:57.785Z,-4.11
2022-12-16T14:27:24.709Z,-4.10
2022-12-16T14:29:51.226Z,-4.07
2022-12-16T14:32:11.915Z,-4.07
2022-12-16T14:34:36.259Z,-4.10
2022-12-16T14:36:58.878Z,-4.07
2022-12-16T14:39:19.382Z,-4.06
2022-12-16T14:41:43.953Z,-4.06
2022-12-16T14:44:04.071Z,-4.08
2022-12-16T14:46:25.709Z,-4.05
2022-12-16T14:48:50.602Z,-4.03
2022-12-16T14:51:11.010Z,-4.08
2022-12-16T14:53:38.479Z,-4.08
2022-12-16T14:55:59.290Z,-4.11
2022-12-16T14:58:32.106Z,-4.10
2022-12-16T15:00:54.549Z,-4.12
2022-12-16T15:03:21.787Z,-4.08
2022-12-16T15:05:50.219Z,-4.06
2022-12-16T15:08:11.031Z,-4.12
2022-12-16T15:10:33.787Z,-4.14
2022-12-16T15:12:58.301Z,-4.06
2022-12-16T15:15:22.137Z,-4.04
2022-12-16T15:17:46.968Z,-4.07
2022-12-16T15:20:12.222Z,-4.11
2022-12-16T15:22:36.151Z,-4.10
2022-12-16T15:24:57.829Z,-4.13
2022-12-16T15:27:43.813Z,-4.12
2022-12-16T15:30:04.469Z,-4.06
2022-12-16T15:32:52.439Z,-4.13
2022-12-16T15:35:12.719Z,-4.04
2022-12-16T15:38:03.635Z,-4.10
2022-12-16T15:40:39.385Z,-4.13
2022-12-16T15:43:01.384Z,-4.15
2022-12-16T15:45:22.881Z,-4.16
2022-12-16T15:47:57.053Z,-4.17
2022-12-16T15:50:21.898Z,-4.12
2022-12-16T15:52:54.875Z,-4.10
2022-12-16T15:55:15.287Z,-4.12
2022-12-16T15:57:53.605Z,-4.07
2022-12-16T16:00:18.569Z,-4.12
2022-12-16T16:02:44.147Z,-4.10
2022-12-16T16:05:12.356Z,-4.14
2022-12-16T16:07:43.340Z,-4.15
2022-12-16T16:10:04.156Z,-4.08
2022-12-16T16:12:24.550Z,-4.14
2022-12-16T16:14:45.093Z,-4.11
2022-12-16T16:17:13.139Z,-4.03
2022-12-16T16:19:43.147Z,-3.88
2022-12-16T16:22:04.994Z,-3.82
2022-12-16T16:24:25.773Z,-3.75
2022-12-16T16:26:46.527Z,-3.77
2022-12-16T16:29:07.054Z,-3.73
2022-12-16T16:31:29.285Z,-3.69
2022-12-16T16:33:49.976Z,-3.69
2022-12-16T16:36:10.272Z,-3.68
2022-12-16T16:38:31.205Z,-3.72
2022-12-16T16:40:56.987Z,-3.72
2022-12-16T16:43:17.654Z,-3.70
2022-12-16T16:45:38.289Z,-3.65
2022-12-16T16:47:59.022Z,-3.67
2022-12-16T16:50:19.713Z,-3.74
2022-12-16T16:52:42.350Z,-3.64
2022-12-16T16:55:02.925Z,-3.64
2022-12-16T16:57:23.693Z,-3.62
2022-12-16T16:59:44.456Z,-3.70
2022-12-16T17:02:05.226Z,-3.59
2022-12-16T17:04:26.102Z,-3.61
2022-12-16T17:06:46.917Z,-3.63
2022-12-16T17:09:09.377Z,-3.65
2022-12-16T17:11:37.701Z,-3.64
2022-12-16T17:14:09.036Z,-3.69
2022-12-16T17:16:30.927Z,-3.68
2022-12-16T17:18:52.657Z,-3.76
2022-12-16T17:21:13.614Z,-3.75
2022-12-16T17:23:34.205Z,-3.75
2022-12-16T17:25:54.906Z,-3.78
2022-12-16T17:28:17.247Z,-3.73
2022-12-16T17:30:47.032Z,-3.77
2022-12-16T17:33:09.119Z,-3.71
2022-12-16T17:35:41.337Z,-3.78
2022-12-16T17:38:02.345Z,-3.78
2022-12-16T17:40:23.275Z,-3.69
2022-12-16T17:42:48.153Z,-3.71
2022-12-16T17:45:08.495Z,-3.78
2022-12-16T17:47:29.121Z,-3.78
2022-12-16T17:49:49.782Z,-3.74
2022-12-16T17:52:10.577Z,-3.73
2022-12-16T17:54:30.830Z,-3.72
2022-12-16T17:56:51.131Z,-3.72
2022-12-16T17:59:11.705Z,-3.68
2022-12-16T18:01:33.857Z,-3.68
2022-12-16T18:03:54.727Z,-3.72
2022-12-16T18:06:16.242Z,-3.58
2022-12-16T18:08:36.603Z,-3.62
2022-12-16T18:10:57.258Z,-3.62
2022-12-16T18:13:18.607Z,-3.53
2022-12-16T18:15:39.330Z,-3.62
2022-12-16T18:18:00.087Z,-3.59
2022-12-16T18:20:21.426Z,-3.54
2022-12-16T18:22:42.472Z,-3.57
2022-12-16T18:25:03.113Z,-3.54
2022-12-16T18:27:24.226Z,-3.55
2022-12-16T18:29:47.474Z,-3.57
2022-12-16T18:32:09.533Z,-3.59
2022-12-16T18:34:31.452Z,-3.57
2022-12-16T18:36:51.905Z,-3.55
2022-12-16T18:39:12.656Z,-3.52
2022-12-16T18:41:35.814Z,-3.52
2022-12-16T18:43:57.739Z,-3.43
2022-12-16T18:46:19.157Z,-3.48
2022-12-16T18:48:40.136Z,-3.50
2022-12-16T18:51:00.744Z,-3.51
2022-12-16T18:53:23.982Z,-3.53
2022-12-16T18:55:46.594Z,-3.51
2022-12-16T18:58:34.704Z,-3.46
2022-12-16T19:00:52.257Z,-3.40
2022-12-16T19:03:13.363Z,-3.33
2022-12-16T19:05:34.107Z,-3.32
2022-12-16T19:07:55.768Z,-3.26
2022-12-16T19:10:16.479Z,-3.43
2022-12-16T19:12:39.083Z,-3.31
2022-12-16T19:15:02.394Z,-3.33
2022-12-16T19:17:23.282Z,-3.34
2022-12-16T19:19:45.459Z,-3.33
2022-12-16T19:22:06.477Z,-3.38
2022-12-16T19:24:27.558Z,-3.26
2022-12-16T19:26:48.942Z,-3.32
2022-12-16T19:29:09.417Z,-3.31
2022-12-16T19:31:32.805Z,-3.30
2022-12-16T19:33:54.667Z,-3.24
2022-12-16T19:36:17.162Z,-3.24
2022-12-16T19:38:38.004Z,-3.27
2022-12-16T19:40:58.383Z,-3.29
2022-12-16T19:43:19.070Z,-3.19
2022-12-16T19:45:39.570Z,-3.24
2022-12-16T19:48:00.588Z,-3.26
2022-12-16T19:50:24.937Z,-3.24
2022-12-16T19:52:49.915Z,-3.21
2022-12-16T19:55:17.424Z,-3.20
2022-12-16T19:57:38.803Z,-3.19
2022-12-16T19:59:59.401Z,-3.21
2022-12-16T20:02:20.606Z,-3.21
2022-12-16T20:04:42.012Z,-3.27
2022-12-16T20:07:02.786Z,-3.25
2022-12-16T20:09:24.140Z,-3.15
2022-12-16T20:11:44.907Z,-3.16
2022-12-16T20:14:05.803Z,-3.20
2022-12-16T20:16:29.300Z,-3.21
2022-12-16T20:18:54.897Z,-3.30
2022-12-16T20:21:24.280Z,-3.17
2022-12-16T20:23:44.827Z,-3.30
2022-12-16T20:26:16.594Z,-3.27
2022-12-16T20:28:37.377Z,-3.36
2022-12-16T20:30:57.826Z,-3.30
2022-12-16T20:33:18.492Z,-3.40
2022-12-16T20:35:39.167Z,-3.33
2022-12-16T20:38:05.775Z,-3.42
2022-12-16T20:40:27.159Z,-3.39
2022-12-16T20:42:48.873Z,-3.41
2022-12-16T20:45:10.211Z,-3.43
2022-12-16T20:47:31.004Z,-3.52
2022-12-16T20:49:51.967Z,-3.63
2022-12-16T20:52:13.719Z,-3.79
2022-12-16T20:54:34.588Z,-3.83
2022-12-16T20:56:55.642Z,-3.83
2022-12-16T20:59:17.338Z,-3.85
2022-12-16T21:01:47.941Z,-3.83
2022-12-16T21:04:16.781Z,-3.92
2022-12-16T21:06:48.789Z,-3.88
2022-12-16T21:09:10.177Z,-3.87
2022-12-16T21:11:31.347Z,-3.91
2022-12-16T21:13:52.048Z,-3.89
2022-12-16T21:16:12.887Z,-3.95
2022-12-16T21:18:33.261Z,-3.92
2022-12-16T21:20:56.656Z,-3.95
2022-12-16T21:23:21.740Z,-3.98
2022-12-16T21:25:44.892Z,-4.00
2022-12-16T21:28:06.611Z,-3.89
2022-12-16T21:30:27.877Z,-3.98
2022-12-16T21:32:48.829Z,-4.01
2022-12-16T21:35:09.675Z,-4.05
2022-12-16T21:37:32.479Z,-4.06
2022-12-16T21:39:53.181Z,-4.06
2022-12-16T21:42:15.445Z,-4.09
2022-12-16T21:44:35.979Z,-4.08
2022-12-16T21:46:56.630Z,-4.17
2022-12-16T21:49:17.363Z,-4.13
2022-12-16T21:51:39.073Z,-4.07
2022-12-16T21:54:04.801Z,-4.09
2022-12-16T21:56:29.148Z,-4.14
2022-12-16T21:58:49.695Z,-4.08
2022-12-16T22:01:15.156Z,-4.18
2022-12-16T22:03:36.067Z,-4.14
2022-12-16T22:05:56.990Z,-4.10
2022-12-16T22:08:17.787Z,-4.12
2022-12-16T22:10:38.375Z,-4.08
2022-12-16T22:12:59.083Z,-4.11
2022-12-16T22:15:19.538Z,-4.12
2022-12-16T22:17:40.057Z,-4.09
2022-12-16T22:20:00.760Z,-4.14
2022-12-16T22:22:21.346Z,-4.12
2022-12-16T22:24:41.947Z,-4.16
2022-12-16T22:27:02.295Z,-4.18
2022-12-16T22:29:22.614Z,-4.19
2022-12-16T22:31:43.315Z,-4.05
2022-12-16T22:34:07.961Z,-4.18
2022-12-16T22:36:32.079Z,-4.11
2022-12-16T22:38:56.393Z,-4.15
2022-12-16T22:41:18.041Z,-4.18
2022-12-16T22:43:45.736Z,-4.23
2022-12-16T22:46:07.189Z,-4.19
2022-12-16T22:48:30.079Z,-4.19
2022-12-16T22:50:51.313Z,-4.20
2022-12-16T22:53:12.418Z,-4.18
2022-12-16T22:55:32.993Z,-4.19
2022-12-16T22:57:53.527Z,-4.17
2022-12-16T23:00:14.171Z,-4.18
2022-12-16T23:02:34.769Z,-4.16
2022-12-16T23:04:55.517Z,-4.18
2022-12-16T23:07:17.479Z,-4.15
2022-12-16T23:09:38.018Z,-4.09
2022-12-16T23:11:59.876Z,-4.13
2022-12-16T23:14:20.232Z,-4.16
2022-12-16T23:16:40.910Z,-4.12
2022-12-16T23:19:02.217Z,-4.13
2022-12-16T23:21:22.871Z,-4.14
2022-12-16T23:23:43.431Z,-4.17
2022-12-16T23:26:17.650Z,-4.14
2022-12-16T23:28:38.154Z,-4.10
2022-12-16T23:30:58.545Z,-4.12
2022-12-16T23:33:20.210Z,-4.10
2022-12-16T23:35:40.814Z,-4.10
2022-12-16T23:38:01.368Z,-4.13
2022-12-16T23:40:22.694Z,-4.12
2022-12-16T23:42:43.085Z,-4.13
2022-12-16T23:45:03.739Z,-4.07
2022-12-16T23:47:24.392Z,-4.09
2022-12-16T23:49:44.896Z,-4.15
2022-12-16T23:52:05.271Z,-4.19
2022-12-16T23:54:25.605Z,-4.16
2022-12-16T23:56:47.294Z,-4.17
2022-12-16T23:59:08.914Z,-4.21
